aviador You're here:

KAKH Decoded Metar

GASTONIA in NC, USA
Report Time2018-02-25 10:54:00
UTC Time2018-02-25 11:26:17
Flight Rules vfr VFR
Wind210° at 07 kt
W.Decomp.*RWY 21: 7.0 kt HW 0.7 kt RCW
W.Rank210° ranks 4
Current wind is above 210° avg. (5.0)
Visibility9999 m
Phenomena:N/A
Clouds:Scattered 090 Hf
Expected CloudBase > 1,200 ft AGL from Temp-Dew spread
CeilingNone
Temp18°C (ISA +5)
Dew Point15°C (83% RH)
AAT17.1°C
QNH1017 hPa
Density Alt1,430 ft
Elevation797 ft
Report Wrong Elevation
Raw Report
KAKH 251054Z AUTO 21007KT 10SM SCT090 18/15 A3002 RMK AO2 SLP161
T01780150=

Extra information for KAKH:More info

Metar Taf Metar & Taf Last 4 Metars F.Rules Stats Wind Profile Meteogram Temp Stats Airport Information Weather charts Add Link Nearby VenuesMetar ALERT Operation Metar Decoded Social comments

AIRNAV info for KAKH